Time;durP1;ratioP1;P1;durP2;ratioP2;P2;SDS_P1;SDS_P2;PMS_P1;PMS_P2;Temp;Humidity;BMP_temperature;BMP_pressure;BME280_temperature;BME280_humidity;BME280_pressure;Samples;Min_cycle;Max_cycle;Signal;HPM_P1;HPM_P2
2023/05/12 00:01:45;;;;;;;17.05;9.43;;;;;;;;;;5007409;28;99561;-80
2023/05/12 00:04:11;;;;;;;15.05;9.40;;;;;;;;;;5006785;28;99386;-80
2023/05/12 00:06:38;;;;;;;12.35;8.90;;;;;;;;;;5005918;28;100232;-80
2023/05/12 00:09:05;;;;;;;11.80;8.45;;;;;;;;;;5006653;28;99683;-79
2023/05/12 00:11:31;;;;;;;12.38;9.15;;;;;;;;;;4987878;28;100106;-79
2023/05/12 00:13:57;;;;;;;11.20;8.13;;;;;;;;;;4989071;28;99101;-80
2023/05/12 00:16:24;;;;;;;14.40;10.18;;;;;;;;;;4985631;28;100199;-80
2023/05/12 00:18:51;;;;;;;16.15;9.63;;;;;;;;;;4987509;28;99093;-79
2023/05/12 00:21:17;;;;;;;12.20;8.85;;;;;;;;;;4988798;28;98932;-79
2023/05/12 00:23:44;;;;;;;13.43;9.20;;;;;;;;;;5001956;28;98533;-79
2023/05/12 00:26:10;;;;;;;13.02;9.00;;;;;;;;;;5004959;28;99035;-79
2023/05/12 00:28:37;;;;;;;14.02;9.27;;;;;;;;;;5006954;28;99969;-79
2023/05/12 00:31:04;;;;;;;11.77;8.13;;;;;;;;;;5008335;28;99243;-79
2023/05/12 00:33:31;;;;;;;16.23;9.40;;;;;;;;;;5005705;28;99463;-79
2023/05/12 00:36:00;;;;;;;10.93;9.30;;;;;;;;;;5010128;28;98968;-78
2023/05/12 00:38:26;;;;;;;9.73;8.73;;;;;;;;;;5006842;28;98720;-79
2023/05/12 00:40:53;;;;;;;11.38;8.77;;;;;;;;;;5006338;28;99135;-80
2023/05/12 00:43:19;;;;;;;9.95;8.65;;;;;;;;;;4982170;28;101750;-80
2023/05/12 00:45:47;;;;;;;12.80;9.40;;;;;;;;;;4986942;28;98926;-81
2023/05/12 00:48:13;;;;;;;9.25;8.07;;;;;;;;;;4987199;28;99053;-79
2023/05/12 00:50:43;;;;;;;11.77;8.52;;;;;;;;;;4968517;28;99615;-79
2023/05/12 00:53:09;;;;;;;8.63;7.72;;;;;;;;;;4994604;28;98836;-79
2023/05/12 00:55:36;;;;;;;11.75;9.88;;;;;;;;;;4996928;28;100152;-79
2023/05/12 00:58:04;;;;;;;15.50;10.40;;;;;;;;;;5015416;28;101783;-77
2023/05/12 01:00:32;;;;;;;14.55;9.93;;;;;;;;;;5004279;28;100170;-79
2023/05/12 01:02:58;;;;;;;10.25;8.77;;;;;;;;;;4993423;28;99193;-80
2023/05/12 01:05:47;;;;;;;8.55;7.70;;;;;;;;;;5027499;28;98978;-79
2023/05/12 01:08:15;;;;;;;9.20;8.23;;;;;;;;;;5045300;27;98520;-78
2023/05/12 01:10:42;;;;;;;10.90;8.57;;;;;;;;;;5041155;27;99017;-79
2023/05/12 01:13:09;;;;;;;17.67;9.43;;;;;;;;;;5017230;28;98410;-78
2023/05/12 01:15:36;;;;;;;12.40;9.45;;;;;;;;;;5024588;27;98476;-79
2023/05/12 01:18:04;;;;;;;13.60;9.45;;;;;;;;;;5020303;28;99303;-79
2023/05/12 01:20:30;;;;;;;10.75;9.05;;;;;;;;;;5009754;28;99334;-79
2023/05/12 01:22:57;;;;;;;9.20;8.23;;;;;;;;;;4987707;28;101412;-79
2023/05/12 01:25:27;;;;;;;15.73;10.10;;;;;;;;;;5006093;28;98747;-78
2023/05/12 01:27:54;;;;;;;17.92;11.90;;;;;;;;;;5001633;28;99268;-78
2023/05/12 01:30:21;;;;;;;16.95;11.07;;;;;;;;;;4988164;28;99003;-78
2023/05/12 01:32:49;;;;;;;18.48;11.18;;;;;;;;;;4988997;28;99075;-77
2023/05/12 01:35:16;;;;;;;13.73;11.25;;;;;;;;;;5002231;28;101723;-78
2023/05/12 01:37:48;;;;;;;14.77;8.00;;;;;;;;;;4999182;28;99536;-77
2023/05/12 01:40:15;;;;;;;17.42;11.15;;;;;;;;;;5029546;28;99605;-77
2023/05/12 01:42:43;;;;;;;12.82;9.52;;;;;;;;;;5014310;28;101727;-77
2023/05/12 01:45:10;;;;;;;17.40;11.23;;;;;;;;;;5009738;28;99965;-77
2023/05/12 01:47:37;;;;;;;14.30;9.77;;;;;;;;;;5009623;28;102206;-77
2023/05/12 01:50:06;;;;;;;18.90;10.18;;;;;;;;;;4995397;28;101790;-78
2023/05/12 01:52:33;;;;;;;13.30;8.77;;;;;;;;;;4992969;28;99913;-77
2023/05/12 01:55:00;;;;;;;16.42;8.90;;;;;;;;;;5011830;28;98960;-78
2023/05/12 01:57:32;;;;;;;12.18;9.15;;;;;;;;;;5010593;28;101794;-78
2023/05/12 02:00:00;;;;;;;12.88;8.35;;;;;;;;;;5004344;28;100060;-77
2023/05/12 02:02:28;;;;;;;8.82;6.60;;;;;;;;;;4994790;28;101277;-77
2023/05/12 02:04:55;;;;;;;15.77;9.63;;;;;;;;;;5003269;28;98943;-78
2023/05/12 02:07:22;;;;;;;6.95;5.43;;;;;;;;;;5007680;28;99128;-76
2023/05/12 02:09:48;;;;;;;6.72;6.03;;;;;;;;;;4990816;28;102514;-77
2023/05/12 02:12:15;;;;;;;11.68;8.13;;;;;;;;;;4989389;28;98930;-77
2023/05/12 02:14:42;;;;;;;8.40;5.40;;;;;;;;;;5023816;28;101583;-76
2023/05/12 02:17:08;;;;;;;12.65;8.32;;;;;;;;;;5024281;28;100164;-76
2023/05/12 02:19:35;;;;;;;10.25;7.57;;;;;;;;;;4989648;28;100390;-76
2023/05/12 02:22:02;;;;;;;9.52;7.10;;;;;;;;;;4990677;28;101632;-76
2023/05/12 02:24:28;;;;;;;7.70;6.28;;;;;;;;;;5011256;28;100276;-77
2023/05/12 02:26:55;;;;;;;7.63;6.15;;;;;;;;;;4991406;28;101960;-77
2023/05/12 02:29:21;;;;;;;8.75;6.70;;;;;;;;;;4990217;28;102111;-76
2023/05/12 02:31:48;;;;;;;9.80;7.45;;;;;;;;;;4990183;28;101918;-76
2023/05/12 02:34:15;;;;;;;5.53;4.95;;;;;;;;;;4985258;28;101262;-77
2023/05/12 02:36:42;;;;;;;9.18;6.72;;;;;;;;;;4990413;28;102257;-76
2023/05/12 02:39:10;;;;;;;9.10;7.20;;;;;;;;;;4989088;28;101547;-77
2023/05/12 02:41:36;;;;;;;8.50;6.63;;;;;;;;;;5022753;28;100776;-76
2023/05/12 02:44:02;;;;;;;12.75;8.23;;;;;;;;;;5003475;28;101972;-76
2023/05/12 02:46:29;;;;;;;12.25;7.70;;;;;;;;;;5006183;28;100231;-76
2023/05/12 02:48:56;;;;;;;14.40;9.13;;;;;;;;;;4969732;28;101387;-76
2023/05/12 02:51:22;;;;;;;12.20;8.38;;;;;;;;;;4988805;28;98902;-75
2023/05/12 02:53:48;;;;;;;20.00;9.90;;;;;;;;;;4969563;28;100853;-76
2023/05/12 02:56:16;;;;;;;13.60;9.50;;;;;;;;;;4988264;28;99378;-77
2023/05/12 02:58:42;;;;;;;20.63;11.13;;;;;;;;;;4970015;28;102845;-77
2023/05/12 03:01:08;;;;;;;13.68;7.85;;;;;;;;;;4990544;28;100899;-77
2023/05/12 03:03:39;;;;;;;14.52;8.98;;;;;;;;;;5008104;28;99029;-76
2023/05/12 03:06:06;;;;;;;19.27;10.65;;;;;;;;;;4991704;28;99093;-75
2023/05/12 03:08:33;;;;;;;17.17;10.02;;;;;;;;;;4992640;28;101276;-76
2023/05/12 03:10:59;;;;;;;20.20;11.15;;;;;;;;;;4989888;28;101233;-76
2023/05/12 03:13:26;;;;;;;21.40;11.43;;;;;;;;;;4989386;28;98637;-76
2023/05/12 03:15:53;;;;;;;24.88;12.82;;;;;;;;;;4987217;28;99487;-77
2023/05/12 03:18:19;;;;;;;22.98;13.52;;;;;;;;;;4987656;28;98993;-76
2023/05/12 03:20:46;;;;;;;25.65;12.13;;;;;;;;;;4986215;28;98969;-77
2023/05/12 03:23:12;;;;;;;25.60;13.15;;;;;;;;;;4986526;28;99804;-76
2023/05/12 03:25:38;;;;;;;27.65;13.57;;;;;;;;;;4987533;28;98799;-76
2023/05/12 03:28:05;;;;;;;18.52;11.35;;;;;;;;;;4986227;28;101474;-77
2023/05/12 03:30:32;;;;;;;34.92;16.05;;;;;;;;;;4988069;28;100924;-77
2023/05/12 03:32:59;;;;;;;36.53;16.23;;;;;;;;;;5003244;28;99342;-76
2023/05/12 03:35:26;;;;;;;41.88;17.55;;;;;;;;;;4987680;28;99183;-76
2023/05/12 03:37:52;;;;;;;27.42;14.25;;;;;;;;;;4971208;28;100168;-75
2023/05/12 03:40:19;;;;;;;50.58;17.98;;;;;;;;;;4969240;28;100482;-78
2023/05/12 03:42:46;;;;;;;54.33;20.70;;;;;;;;;;4986001;28;99191;-76
2023/05/12 03:45:13;;;;;;;48.03;20.85;;;;;;;;;;4987487;28;99008;-76
2023/05/12 03:47:39;;;;;;;63.75;22.67;;;;;;;;;;4968909;28;99956;-77
2023/05/12 03:50:07;;;;;;;49.33;18.77;;;;;;;;;;4972985;28;101433;-76
2023/05/12 03:52:33;;;;;;;55.13;22.27;;;;;;;;;;4991113;28;100018;-76
2023/05/12 03:55:00;;;;;;;70.43;23.65;;;;;;;;;;4988687;28;101717;-75
2023/05/12 03:57:26;;;;;;;66.75;25.02;;;;;;;;;;5005616;28;100029;-76
2023/05/12 03:59:53;;;;;;;74.38;26.85;;;;;;;;;;4988366;28;101079;-77
2023/05/12 04:02:20;;;;;;;58.10;23.42;;;;;;;;;;5007025;28;99382;-76
2023/05/12 04:04:46;;;;;;;88.47;28.20;;;;;;;;;;5006007;28;98806;-75
2023/05/12 04:07:13;;;;;;;82.68;27.88;;;;;;;;;;4988148;28;99570;-75
2023/05/12 04:09:40;;;;;;;83.53;26.38;;;;;;;;;;5007007;28;100423;-76
2023/05/12 04:12:07;;;;;;;77.53;26.35;;;;;;;;;;4991020;28;101711;-76
2023/05/12 04:14:33;;;;;;;100.63;29.77;;;;;;;;;;5006600;28;100144;-77
2023/05/12 04:17:10;;;;;;;92.50;30.48;;;;;;;;;;4988427;28;100906;-77
2023/05/12 04:19:37;;;;;;;100.30;30.50;;;;;;;;;;4991245;28;99361;-76
2023/05/12 04:22:06;;;;;;;83.28;27.67;;;;;;;;;;4988557;28;100792;-77
2023/05/12 04:24:32;;;;;;;95.82;30.20;;;;;;;;;;5006006;28;99168;-76
2023/05/12 04:26:59;;;;;;;107.07;32.72;;;;;;;;;;4987823;28;100449;-75
2023/05/12 04:29:25;;;;;;;84.18;30.92;;;;;;;;;;4988501;28;101532;-76
2023/05/12 04:31:53;;;;;;;61.00;23.90;;;;;;;;;;5005013;28;99444;-76
2023/05/12 04:34:20;;;;;;;116.47;37.53;;;;;;;;;;4989558;28;100947;-78
2023/05/12 04:36:46;;;;;;;94.72;33.35;;;;;;;;;;4985926;28;99403;-76
2023/05/12 04:39:13;;;;;;;94.75;33.33;;;;;;;;;;4967834;28;102570;-77
2023/05/12 04:41:40;;;;;;;91.97;35.10;;;;;;;;;;4986602;28;101432;-76
2023/05/12 04:44:06;;;;;;;79.85;30.17;;;;;;;;;;4984163;28;99005;-76
2023/05/12 04:46:33;;;;;;;94.78;36.55;;;;;;;;;;4984377;28;99922;-76
2023/05/12 04:48:59;;;;;;;94.95;37.28;;;;;;;;;;4984802;28;101837;-76
2023/05/12 04:51:26;;;;;;;89.68;33.28;;;;;;;;;;4984794;28;101895;-76
2023/05/12 04:53:52;;;;;;;94.40;38.20;;;;;;;;;;4986044;28;99294;-77
2023/05/12 04:56:20;;;;;;;84.57;34.33;;;;;;;;;;5000801;28;100395;-76
2023/05/12 04:58:47;;;;;;;85.13;35.35;;;;;;;;;;5004700;28;101774;-75
2023/05/12 05:01:13;;;;;;;86.85;35.38;;;;;;;;;;5003157;28;102299;-76
2023/05/12 05:03:40;;;;;;;105.18;38.70;;;;;;;;;;5008122;28;99253;-77
2023/05/12 05:06:07;;;;;;;106.07;38.85;;;;;;;;;;5006497;28;101180;-75
2023/05/12 05:08:33;;;;;;;89.00;35.95;;;;;;;;;;5024766;28;99096;-75
2023/05/12 05:10:59;;;;;;;76.47;32.10;;;;;;;;;;5025519;28;98756;-74
2023/05/12 05:13:27;;;;;;;101.88;38.95;;;;;;;;;;5007302;28;99327;-75
2023/05/12 05:15:54;;;;;;;81.88;37.55;;;;;;;;;;5006735;28;100139;-77
2023/05/12 05:18:22;;;;;;;75.82;32.97;;;;;;;;;;5011067;28;101462;-75
2023/05/12 05:20:53;;;;;;;83.15;36.63;;;;;;;;;;5007540;28;101082;-76
2023/05/12 05:23:24;;;;;;;74.65;33.75;;;;;;;;;;5006968;28;99982;-77
2023/05/12 05:25:54;;;;;;;85.72;38.20;;;;;;;;;;5006956;28;99309;-75
2023/05/12 05:28:22;;;;;;;79.18;36.67;;;;;;;;;;5006475;28;102062;-75
2023/05/12 05:30:48;;;;;;;94.70;40.50;;;;;;;;;;5006966;28;101019;-74
2023/05/12 05:33:15;;;;;;;87.93;38.45;;;;;;;;;;5004346;28;101290;-75
2023/05/12 05:35:41;;;;;;;72.57;32.03;;;;;;;;;;4986680;28;99352;-75
2023/05/12 05:38:09;;;;;;;79.60;37.90;;;;;;;;;;4989763;28;99363;-76
2023/05/12 05:40:36;;;;;;;70.60;35.65;;;;;;;;;;4990614;28;101359;-76
2023/05/12 05:43:18;;;;;;;78.50;36.72;;;;;;;;;;4986619;28;98890;-75
2023/05/12 05:45:44;;;;;;;75.05;36.65;;;;;;;;;;4990100;28;100969;-76
2023/05/12 05:48:11;;;;;;;68.57;33.80;;;;;;;;;;4987397;28;101327;-75
2023/05/12 05:50:37;;;;;;;76.63;36.10;;;;;;;;;;5020328;28;100234;-76
2023/05/12 05:53:04;;;;;;;75.78;37.67;;;;;;;;;;5025406;28;100863;-77
2023/05/12 05:55:30;;;;;;;81.68;37.97;;;;;;;;;;5006724;28;101876;-75
2023/05/12 05:57:57;;;;;;;73.97;36.13;;;;;;;;;;5000989;28;101342;-73
2023/05/12 06:00:23;;;;;;;73.93;34.97;;;;;;;;;;4996557;28;100130;-78
2023/05/12 06:02:51;;;;;;;71.10;36.13;;;;;;;;;;4997661;28;102087;-76
2023/05/12 06:05:19;;;;;;;68.07;34.90;;;;;;;;;;4987822;28;101577;-77
2023/05/12 06:07:46;;;;;;;75.18;32.17;;;;;;;;;;4987461;28;100745;-75
2023/05/12 06:10:13;;;;;;;72.30;35.85;;;;;;;;;;4987218;28;100377;-75
2023/05/12 06:12:40;;;;;;;69.60;34.58;;;;;;;;;;5004082;28;100176;-75
2023/05/12 06:15:07;;;;;;;75.22;36.95;;;;;;;;;;5022224;27;99850;-75
2023/05/12 06:17:33;;;;;;;57.80;33.40;;;;;;;;;;5027785;28;98991;-75
2023/05/12 06:20:01;;;;;;;66.28;36.92;;;;;;;;;;5028910;28;100158;-75
2023/05/12 06:22:27;;;;;;;52.72;31.02;;;;;;;;;;5027628;28;100197;-74
2023/05/12 06:24:54;;;;;;;47.58;26.90;;;;;;;;;;5009469;28;100120;-76
2023/05/12 06:27:20;;;;;;;46.25;25.50;;;;;;;;;;5019564;28;99620;-77
2023/05/12 06:29:46;;;;;;;53.80;32.92;;;;;;;;;;5021691;28;100589;-75
2023/05/12 06:32:13;;;;;;;54.42;32.22;;;;;;;;;;5002656;28;101915;-76
2023/05/12 06:34:41;;;;;;;51.25;30.15;;;;;;;;;;5025971;28;100066;-76
2023/05/12 06:37:07;;;;;;;53.38;31.58;;;;;;;;;;5027216;28;100424;-75
2023/05/12 06:39:34;;;;;;;46.65;29.92;;;;;;;;;;5025368;27;99400;-76
2023/05/12 06:42:01;;;;;;;44.38;25.02;;;;;;;;;;5028564;28;100431;-75
2023/05/12 06:44:37;;;;;;;48.03;29.27;;;;;;;;;;5013248;28;99566;-75
2023/05/12 06:47:07;;;;;;;42.05;25.15;;;;;;;;;;5006816;28;101069;-76
2023/05/12 06:49:35;;;;;;;39.60;25.88;;;;;;;;;;5027890;28;98880;-76
2023/05/12 06:52:02;;;;;;;41.58;26.80;;;;;;;;;;5028132;28;99817;-77
2023/05/12 06:54:29;;;;;;;42.88;28.80;;;;;;;;;;5008728;28;102041;-75
2023/05/12 06:56:56;;;;;;;48.03;27.90;;;;;;;;;;4991082;28;101465;-76
2023/05/12 06:59:23;;;;;;;42.35;27.58;;;;;;;;;;5004529;28;98641;-76
2023/05/12 07:01:49;;;;;;;44.05;27.75;;;;;;;;;;5002360;28;100192;-76
2023/05/12 07:04:16;;;;;;;42.22;25.50;;;;;;;;;;5003282;28;99950;-76
2023/05/12 07:06:42;;;;;;;45.88;27.52;;;;;;;;;;5010965;28;100750;-74
2023/05/12 07:09:08;;;;;;;37.83;26.35;;;;;;;;;;5007144;28;100315;-75
2023/05/12 07:11:35;;;;;;;35.88;26.58;;;;;;;;;;5007502;28;100032;-75
2023/05/12 07:14:01;;;;;;;31.83;24.02;;;;;;;;;;5004583;28;99485;-75
2023/05/12 07:16:28;;;;;;;34.63;25.52;;;;;;;;;;5005176;28;99191;-76
2023/05/12 07:18:55;;;;;;;36.10;24.58;;;;;;;;;;5008292;28;100048;-76
2023/05/12 07:21:21;;;;;;;33.25;24.35;;;;;;;;;;5000188;28;99540;-76
2023/05/12 07:23:47;;;;;;;35.10;23.30;;;;;;;;;;4987348;28;99032;-75
2023/05/12 07:26:14;;;;;;;33.72;24.63;;;;;;;;;;4991678;28;99110;-75
2023/05/12 07:28:41;;;;;;;34.55;25.40;;;;;;;;;;5009701;28;100998;-77
2023/05/12 07:31:07;;;;;;;29.50;23.25;;;;;;;;;;5008336;28;100987;-78
2023/05/12 07:33:34;;;;;;;27.48;22.70;;;;;;;;;;5003958;28;99429;-77
2023/05/12 07:36:01;;;;;;;30.85;22.40;;;;;;;;;;5002413;28;99775;-74
2023/05/12 07:38:27;;;;;;;27.65;23.23;;;;;;;;;;5005458;28;99028;-76
2023/05/12 07:40:54;;;;;;;35.60;22.55;;;;;;;;;;5006101;28;100265;-73
2023/05/12 07:43:20;;;;;;;26.20;21.80;;;;;;;;;;5005328;28;100116;-75
2023/05/12 07:45:46;;;;;;;24.08;21.58;;;;;;;;;;5005150;28;99316;-76
2023/05/12 07:48:13;;;;;;;23.77;19.98;;;;;;;;;;5006201;28;100262;-75
2023/05/12 07:50:39;;;;;;;27.27;21.30;;;;;;;;;;5003370;28;100099;-74
2023/05/12 07:53:06;;;;;;;22.08;18.92;;;;;;;;;;4989725;28;100419;-74
2023/05/12 07:55:32;;;;;;;20.73;18.58;;;;;;;;;;5009069;28;98823;-72
2023/05/12 07:57:59;;;;;;;18.55;16.63;;;;;;;;;;5016547;28;99231;-74
2023/05/12 08:00:25;;;;;;;18.27;16.27;;;;;;;;;;5005766;28;99565;-74
2023/05/12 08:02:52;;;;;;;15.70;14.07;;;;;;;;;;5006049;28;99974;-74
2023/05/12 08:05:19;;;;;;;18.42;16.58;;;;;;;;;;5016073;28;99140;-75
2023/05/12 08:07:46;;;;;;;19.40;17.10;;;;;;;;;;5025820;28;99199;-74
2023/05/12 08:10:12;;;;;;;18.58;16.58;;;;;;;;;;5026341;28;99017;-74
2023/05/12 08:12:40;;;;;;;17.88;16.02;;;;;;;;;;4997022;28;99773;-74
2023/05/12 08:15:07;;;;;;;17.55;15.77;;;;;;;;;;5005673;28;99032;-73
2023/05/12 08:17:34;;;;;;;16.63;14.98;;;;;;;;;;5011044;28;99952;-75
2023/05/12 08:20:03;;;;;;;18.02;16.20;;;;;;;;;;5025615;28;100111;-74
2023/05/12 08:22:30;;;;;;;20.73;15.95;;;;;;;;;;5023768;28;99212;-75
2023/05/12 08:24:57;;;;;;;16.25;14.65;;;;;;;;;;5006569;28;100166;-73
2023/05/12 08:27:23;;;;;;;17.83;15.20;;;;;;;;;;5005881;28;100185;-77
2023/05/12 08:29:50;;;;;;;16.00;14.43;;;;;;;;;;5016224;28;100011;-75
2023/05/12 08:32:16;;;;;;;19.88;14.77;;;;;;;;;;5025039;28;100300;-76
2023/05/12 08:34:42;;;;;;;14.50;13.07;;;;;;;;;;5026854;28;100040;-76
2023/05/12 08:37:10;;;;;;;14.40;12.82;;;;;;;;;;5008550;28;100959;-75
2023/05/12 08:39:36;;;;;;;15.48;13.88;;;;;;;;;;5006480;28;101979;-75
2023/05/12 08:42:21;;;;;;;16.25;14.75;;;;;;;;;;5019147;28;99957;-76
2023/05/12 08:44:48;;;;;;;16.60;13.30;;;;;;;;;;4987977;28;100045;-76
2023/05/12 08:47:16;;;;;;;13.98;12.73;;;;;;;;;;5013800;28;100639;-74
2023/05/12 08:49:44;;;;;;;13.52;11.57;;;;;;;;;;5020472;28;100119;-74
2023/05/12 08:52:11;;;;;;;12.52;11.30;;;;;;;;;;5026131;28;99309;-75
2023/05/12 08:54:38;;;;;;;12.63;11.55;;;;;;;;;;5013791;28;100683;-76
2023/05/12 08:57:20;;;;;;;11.80;10.75;;;;;;;;;;5005940;28;99829;-77
2023/05/12 08:59:47;;;;;;;12.90;10.00;;;;;;;;;;5003257;28;99950;-75
2023/05/12 09:02:16;;;;;;;11.82;10.85;;;;;;;;;;5004634;28;100075;-78
2023/05/12 09:04:42;;;;;;;12.23;9.73;;;;;;;;;;5000635;28;100352;-76
2023/05/12 09:07:09;;;;;;;10.27;9.35;;;;;;;;;;5001608;28;100224;-76
2023/05/12 09:09:37;;;;;;;9.45;8.57;;;;;;;;;;5004025;28;100075;-76
2023/05/12 09:12:06;;;;;;;10.10;9.27;;;;;;;;;;4985769;28;100096;-75
2023/05/12 09:14:34;;;;;;;8.55;7.95;;;;;;;;;;5002303;28;99356;-76
2023/05/12 09:17:02;;;;;;;14.27;8.38;;;;;;;;;;5011814;28;100021;-76
2023/05/12 09:19:28;;;;;;;9.23;7.93;;;;;;;;;;5003359;28;100258;-75
2023/05/12 09:21:55;;;;;;;7.82;7.32;;;;;;;;;;5008431;28;99661;-76
2023/05/12 09:24:32;;;;;;;9.32;8.52;;;;;;;;;;5006020;28;100388;-76
2023/05/12 09:26:58;;;;;;;9.07;7.78;;;;;;;;;;5007590;28;100415;-77
2023/05/12 09:29:25;;;;;;;8.25;7.55;;;;;;;;;;5003119;28;99918;-74
2023/05/12 09:31:58;;;;;;;7.28;6.68;;;;;;;;;;5006147;28;99353;-76
2023/05/12 09:34:34;;;;;;;7.40;6.57;;;;;;;;;;5020548;28;100794;-76
2023/05/12 09:37:03;;;;;;;7.60;6.90;;;;;;;;;;5017768;28;100294;-75
2023/05/12 09:39:30;;;;;;;6.38;5.85;;;;;;;;;;5018162;28;100010;-76
2023/05/12 09:41:56;;;;;;;7.05;6.45;;;;;;;;;;5016955;28;101056;-77
2023/05/12 09:44:24;;;;;;;6.57;5.47;;;;;;;;;;5003032;28;99876;-76
2023/05/12 09:46:51;;;;;;;6.22;5.35;;;;;;;;;;5003958;28;100354;-76
2023/05/12 09:49:22;;;;;;;6.00;5.35;;;;;;;;;;5008052;28;100045;-74
2023/05/12 09:51:55;;;;;;;8.05;6.07;;;;;;;;;;5006155;28;101045;-76
2023/05/12 09:54:28;;;;;;;6.03;5.63;;;;;;;;;;5021481;28;100430;-76
2023/05/12 09:56:57;;;;;;;5.95;5.55;;;;;;;;;;4997242;28;100143;-75
2023/05/12 09:59:25;;;;;;;6.35;5.78;;;;;;;;;;5002187;28;100256;-77
2023/05/12 10:01:53;;;;;;;6.95;5.28;;;;;;;;;;5007345;28;100120;-76
2023/05/12 10:04:20;;;;;;;5.20;4.80;;;;;;;;;;4997020;28;99930;-76
2023/05/12 10:06:47;;;;;;;5.35;4.90;;;;;;;;;;4997487;28;99734;-77
2023/05/12 10:09:24;;;;;;;5.32;4.82;;;;;;;;;;5006518;28;100308;-78
2023/05/12 10:11:51;;;;;;;4.85;4.40;;;;;;;;;;5006020;28;98984;-78
2023/05/12 10:14:21;;;;;;;5.70;5.15;;;;;;;;;;5025797;28;99473;-78
2023/05/12 10:16:48;;;;;;;42.72;7.88;;;;;;;;;;5028291;28;98930;-78
2023/05/12 10:19:16;;;;;;;42.08;7.68;;;;;;;;;;5004663;28;99777;-79
2023/05/12 10:21:45;;;;;;;7.72;4.80;;;;;;;;;;5004030;28;101245;-78
2023/05/12 10:24:15;;;;;;;9.32;5.07;;;;;;;;;;5009235;28;98950;-77
2023/05/12 10:26:42;;;;;;;5.55;4.88;;;;;;;;;;5013995;28;100893;-76
2023/05/12 10:29:09;;;;;;;8.38;4.95;;;;;;;;;;5008795;28;99261;-75
2023/05/12 10:31:37;;;;;;;4.53;3.70;;;;;;;;;;5002097;28;98905;-75
2023/05/12 10:34:04;;;;;;;4.90;3.60;;;;;;;;;;5005506;28;100460;-76
2023/05/12 10:36:30;;;;;;;3.78;3.47;;;;;;;;;;5000827;28;100908;-75
2023/05/12 10:39:04;;;;;;;4.00;3.65;;;;;;;;;;4996830;28;99359;-74
2023/05/12 10:41:31;;;;;;;6.78;3.70;;;;;;;;;;4988596;28;100017;-76
2023/05/12 10:43:58;;;;;;;7.75;4.15;;;;;;;;;;4977394;28;99994;-78
2023/05/12 10:46:28;;;;;;;4.00;3.58;;;;;;;;;;5009450;28;100606;-79
2023/05/12 10:48:58;;;;;;;3.50;3.30;;;;;;;;;;5011077;28;100319;-77
2023/05/12 10:51:27;;;;;;;4.43;4.03;;;;;;;;;;5010471;28;99318;-78
2023/05/12 10:54:01;;;;;;;3.30;3.10;;;;;;;;;;5006934;28;101510;-78
2023/05/12 10:56:30;;;;;;;4.13;3.42;;;;;;;;;;5022027;28;100245;-76
2023/05/12 10:59:16;;;;;;;3.42;3.22;;;;;;;;;;5017194;28;99854;-76
2023/05/12 11:01:56;;;;;;;2.78;2.58;;;;;;;;;;5004148;28;100491;-77
2023/05/12 11:04:34;;;;;;;4.20;3.00;;;;;;;;;;5006577;28;100510;-76
2023/05/12 11:07:00;;;;;;;3.65;3.20;;;;;;;;;;5004546;28;99378;-75
2023/05/12 11:09:28;;;;;;;5.15;3.63;;;;;;;;;;5006651;28;99444;-80
2023/05/12 11:11:55;;;;;;;3.78;3.47;;;;;;;;;;5008764;28;99846;-78
2023/05/12 11:14:22;;;;;;;3.63;3.42;;;;;;;;;;5025831;28;100433;-77
2023/05/12 11:16:48;;;;;;;5.60;3.25;;;;;;;;;;5014750;28;100161;-79
2023/05/12 11:19:17;;;;;;;3.60;3.30;;;;;;;;;;5018631;28;99527;-77
2023/05/12 11:21:43;;;;;;;2.90;2.58;;;;;;;;;;5019318;28;98808;-76
2023/05/12 11:24:12;;;;;;;7.47;2.40;;;;;;;;;;5017166;28;99224;-78
2023/05/12 11:26:39;;;;;;;2.80;2.60;;;;;;;;;;5021016;28;99131;-78
2023/05/12 11:29:06;;;;;;;2.40;2.30;;;;;;;;;;5022809;28;98727;-78
2023/05/12 11:31:34;;;;;;;4.90;2.90;;;;;;;;;;5002411;28;99225;-76
2023/05/12 11:34:04;;;;;;;3.00;2.80;;;;;;;;;;5000193;28;99245;-78
2023/05/12 11:36:42;;;;;;;2.75;2.55;;;;;;;;;;5003607;28;99299;-77
2023/05/12 11:39:16;;;;;;;4.35;3.33;;;;;;;;;;5005811;28;99571;-78
2023/05/12 11:41:43;;;;;;;3.10;2.90;;;;;;;;;;5003946;28;100191;-77
2023/05/12 11:44:20;;;;;;;4.35;2.90;;;;;;;;;;4998570;28;99650;-78
2023/05/12 11:46:53;;;;;;;4.40;3.10;;;;;;;;;;5000626;28;100619;-76
2023/05/12 11:49:19;;;;;;;3.33;3.13;;;;;;;;;;5002053;28;100960;-78
2023/05/12 11:51:46;;;;;;;5.72;3.40;;;;;;;;;;5008449;28;99970;-76
2023/05/12 11:54:13;;;;;;;3.53;3.08;;;;;;;;;;5005292;28;99592;-77
2023/05/12 11:56:46;;;;;;;6.75;3.10;;;;;;;;;;5004372;28;99325;-78
2023/05/12 11:59:12;;;;;;;3.20;2.97;;;;;;;;;;5007652;28;98879;-78
2023/05/12 12:01:45;;;;;;;2.80;2.60;;;;;;;;;;5002902;28;99357;-77
2023/05/12 12:04:12;;;;;;;2.75;2.53;;;;;;;;;;5003753;28;100461;-77
2023/05/12 12:06:42;;;;;;;2.47;2.30;;;;;;;;;;5001605;28;99817;-77
2023/05/12 12:09:09;;;;;;;2.92;2.70;;;;;;;;;;5002791;28;99162;-78
2023/05/12 12:11:35;;;;;;;4.15;3.20;;;;;;;;;;5004292;28;99071;-77
2023/05/12 12:14:02;;;;;;;4.82;3.08;;;;;;;;;;5006362;28;99937;-78
2023/05/12 12:16:30;;;;;;;3.17;3.00;;;;;;;;;;5003153;28;98885;-77
2023/05/12 12:18:56;;;;;;;4.63;2.85;;;;;;;;;;4997333;28;99965;-78
2023/05/12 12:21:24;;;;;;;5.07;3.10;;;;;;;;;;4995311;28;100863;-78
2023/05/12 12:23:50;;;;;;;6.07;2.80;;;;;;;;;;4993995;28;100446;-77
2023/05/12 12:26:20;;;;;;;6.75;2.60;;;;;;;;;;4996083;28;100210;-77
2023/05/12 12:28:46;;;;;;;2.72;2.53;;;;;;;;;;4997336;28;100309;-78
2023/05/12 12:31:13;;;;;;;5.00;2.58;;;;;;;;;;4996004;28;100054;-77
2023/05/12 12:33:39;;;;;;;6.00;2.60;;;;;;;;;;4998207;28;100227;-77
2023/05/12 12:36:06;;;;;;;2.83;2.60;;;;;;;;;;4991371;28;99382;-78
2023/05/12 12:38:32;;;;;;;2.78;2.67;;;;;;;;;;4993172;28;99625;-77
2023/05/12 12:40:59;;;;;;;2.85;2.65;;;;;;;;;;4992873;28;100853;-78
2023/05/12 12:43:26;;;;;;;2.85;2.65;;;;;;;;;;4992661;28;99274;-76
2023/05/12 12:45:53;;;;;;;3.08;2.88;;;;;;;;;;4994879;28;99160;-77
2023/05/12 12:48:20;;;;;;;3.60;3.30;;;;;;;;;;4990071;28;100237;-78
2023/05/12 12:50:46;;;;;;;3.97;3.00;;;;;;;;;;4986951;28;99318;-77
2023/05/12 12:53:13;;;;;;;3.65;3.35;;;;;;;;;;4987427;28;100737;-78
2023/05/12 12:55:39;;;;;;;3.33;2.83;;;;;;;;;;4990356;28;100570;-78
2023/05/12 12:58:05;;;;;;;3.60;3.40;;;;;;;;;;4995777;28;100003;-77
2023/05/12 13:00:32;;;;;;;5.22;3.53;;;;;;;;;;5007270;28;100300;-78
2023/05/12 13:02:59;;;;;;;5.55;4.03;;;;;;;;;;5008018;28;100049;-78
2023/05/12 13:05:25;;;;;;;4.07;3.70;;;;;;;;;;5009326;28;100248;-79
2023/05/12 13:07:52;;;;;;;4.45;3.72;;;;;;;;;;5009890;28;99889;-78
2023/05/12 13:10:19;;;;;;;11.40;3.40;;;;;;;;;;5013175;28;99960;-78
2023/05/12 13:12:49;;;;;;;6.00;3.80;;;;;;;;;;5015263;28;101462;-79
2023/05/12 13:15:17;;;;;;;3.67;3.47;;;;;;;;;;5020718;28;99952;-78
2023/05/12 13:17:47;;;;;;;4.28;3.88;;;;;;;;;;5022293;28;99326;-78
2023/05/12 13:20:14;;;;;;;3.80;3.45;;;;;;;;;;5012929;28;100224;-78
2023/05/12 13:22:41;;;;;;;3.75;3.55;;;;;;;;;;5008622;28;99903;-79
2023/05/12 13:25:08;;;;;;;2.88;2.78;;;;;;;;;;5014567;28;100067;-78
2023/05/12 13:27:34;;;;;;;5.68;3.33;;;;;;;;;;5014002;28;100401;-78
2023/05/12 13:30:03;;;;;;;3.30;3.10;;;;;;;;;;5016005;28;99420;-78
2023/05/12 13:32:30;;;;;;;3.30;3.10;;;;;;;;;;5013986;28;100110;-79
2023/05/12 13:34:57;;;;;;;4.40;3.20;;;;;;;;;;5011250;28;100663;-78
2023/05/12 13:37:23;;;;;;;3.47;3.17;;;;;;;;;;5012249;28;99992;-78
2023/05/12 13:39:50;;;;;;;5.82;3.33;;;;;;;;;;5017666;28;99957;-77
2023/05/12 13:42:16;;;;;;;6.85;4.88;;;;;;;;;;5012692;28;99094;-77
2023/05/12 13:44:43;;;;;;;5.30;4.78;;;;;;;;;;5013246;28;99918;-79
2023/05/12 13:47:10;;;;;;;4.70;3.85;;;;;;;;;;5010374;28;99257;-79
2023/05/12 13:49:36;;;;;;;4.63;3.83;;;;;;;;;;5011311;28;100275;-78
2023/05/12 13:52:03;;;;;;;6.60;3.63;;;;;;;;;;5011451;28;100361;-79
2023/05/12 13:54:30;;;;;;;4.20;3.80;;;;;;;;;;5009847;28;100819;-79
2023/05/12 13:56:57;;;;;;;2.70;2.55;;;;;;;;;;5027689;28;99775;-79
2023/05/12 13:59:23;;;;;;;3.47;3.17;;;;;;;;;;5028989;28;99199;-78
2023/05/12 14:01:50;;;;;;;3.38;3.13;;;;;;;;;;5033649;28;100143;-78
2023/05/12 14:04:16;;;;;;;4.35;2.50;;;;;;;;;;5031223;28;99249;-78
2023/05/12 14:06:43;;;;;;;3.22;2.80;;;;;;;;;;5030614;28;98584;-78
2023/05/12 14:09:10;;;;;;;3.25;3.00;;;;;;;;;;5036321;28;99138;-77
2023/05/12 14:11:37;;;;;;;6.45;5.20;;;;;;;;;;5038537;28;99146;-78
2023/05/12 14:14:05;;;;;;;8.57;5.13;;;;;;;;;;5018738;28;100467;-78
2023/05/12 14:16:31;;;;;;;4.93;4.50;;;;;;;;;;5008019;28;99232;-78
2023/05/12 14:18:59;;;;;;;5.40;4.82;;;;;;;;;;5008176;28;99844;-79
2023/05/12 14:21:25;;;;;;;6.63;4.57;;;;;;;;;;5008054;28;98828;-78
2023/05/12 14:23:52;;;;;;;9.65;5.07;;;;;;;;;;5010191;28;99261;-78
2023/05/12 14:26:18;;;;;;;5.55;5.00;;;;;;;;;;5024202;28;99736;-79